sensor_id;sensor_type;location;lat;lon;timestamp;temperature;humidity
5802;DHT22;2927;49.366;8.530;2023-04-06T00:01:25;1.00;99.90
5802;DHT22;2927;49.366;8.530;2023-04-06T00:03:50;0.90;1.00
5802;DHT22;2927;49.366;8.530;2023-04-06T00:06:16;0.90;1.00
5802;DHT22;2927;49.366;8.530;2023-04-06T00:08:41;0.80;1.00
5802;DHT22;2927;49.366;8.530;2023-04-06T00:11:07;0.90;1.00
5802;DHT22;2927;49.366;8.530;2023-04-06T00:13:33;0.90;1.00
5802;DHT22;2927;49.366;8.530;2023-04-06T00:15:58;0.90;1.00
5802;DHT22;2927;49.366;8.530;2023-04-06T00:18:24;0.80;1.00
5802;DHT22;2927;49.366;8.530;2023-04-06T00:20:49;0.70;1.00
5802;DHT22;2927;49.366;8.530;2023-04-06T00:23:16;0.70;1.00
5802;DHT22;2927;49.366;8.530;2023-04-06T00:25:42;0.60;25.30
5802;DHT22;2927;49.366;8.530;2023-04-06T00:28:07;0.70;95.80
5802;DHT22;2927;49.366;8.530;2023-04-06T00:30:33;0.70;1.00
5802;DHT22;2927;49.366;8.530;2023-04-06T00:32:58;0.70;1.00
5802;DHT22;2927;49.366;8.530;2023-04-06T00:35:24;0.70;99.90
5802;DHT22;2927;49.366;8.530;2023-04-06T00:37:49;0.60;1.00
5802;DHT22;2927;49.366;8.530;2023-04-06T00:40:15;0.60;99.90
5802;DHT22;2927;49.366;8.530;2023-04-06T00:42:41;0.50;1.00
5802;DHT22;2927;49.366;8.530;2023-04-06T00:45:07;0.50;1.00
5802;DHT22;2927;49.366;8.530;2023-04-06T00:47:33;0.50;99.90
5802;DHT22;2927;49.366;8.530;2023-04-06T00:49:59;0.50;99.90
5802;DHT22;2927;49.366;8.530;2023-04-06T00:52:24;0.50;1.00
5802;DHT22;2927;49.366;8.530;2023-04-06T00:54:50;0.50;1.00
5802;DHT22;2927;49.366;8.530;2023-04-06T00:57:16;0.40;1.00
5802;DHT22;2927;49.366;8.530;2023-04-06T00:59:42;0.40;1.00
5802;DHT22;2927;49.366;8.530;2023-04-06T01:02:08;0.50;1.00
5802;DHT22;2927;49.366;8.530;2023-04-06T01:04:34;0.50;99.90
5802;DHT22;2927;49.366;8.530;2023-04-06T01:07:00;0.50;99.90
5802;DHT22;2927;49.366;8.530;2023-04-06T01:09:29;0.50;99.90
5802;DHT22;2927;49.366;8.530;2023-04-06T01:11:56;0.40;1.00
5802;DHT22;2927;49.366;8.530;2023-04-06T01:14:22;0.40;1.00
5802;DHT22;2927;49.366;8.530;2023-04-06T01:16:48;0.30;1.00
5802;DHT22;2927;49.366;8.530;2023-04-06T01:19:14;0.30;99.90
5802;DHT22;2927;49.366;8.530;2023-04-06T01:21:40;0.30;99.90
5802;DHT22;2927;49.366;8.530;2023-04-06T01:24:07;0.30;99.90
5802;DHT22;2927;49.366;8.530;2023-04-06T01:26:33;0.20;80.60
5802;DHT22;2927;49.366;8.530;2023-04-06T01:28:59;0.20;1.00
5802;DHT22;2927;49.366;8.530;2023-04-06T01:31:25;0.20;99.90
5802;DHT22;2927;49.366;8.530;2023-04-06T01:33:51;0.20;1.00
5802;DHT22;2927;49.366;8.530;2023-04-06T01:36:17;0.20;1.00
5802;DHT22;2927;49.366;8.530;2023-04-06T01:38:43;0.10;99.90
5802;DHT22;2927;49.366;8.530;2023-04-06T01:41:09;0.10;1.00
5802;DHT22;2927;49.366;8.530;2023-04-06T01:43:34;0.10;99.90
5802;DHT22;2927;49.366;8.530;2023-04-06T01:46:01;0.10;1.00
5802;DHT22;2927;49.366;8.530;2023-04-06T01:48:27;0.10;99.90
5802;DHT22;2927;49.366;8.530;2023-04-06T01:50:53;0.10;1.00
5802;DHT22;2927;49.366;8.530;2023-04-06T01:53:19;0.10;1.00
5802;DHT22;2927;49.366;8.530;2023-04-06T01:55:44;0.00;99.90
5802;DHT22;2927;49.366;8.530;2023-04-06T01:58:10;0.00;99.90
5802;DHT22;2927;49.366;8.530;2023-04-06T02:00:36;-0.10;34.20
5802;DHT22;2927;49.366;8.530;2023-04-06T02:03:02;-0.10;99.90
5802;DHT22;2927;49.366;8.530;2023-04-06T02:05:29;-0.10;99.90
5802;DHT22;2927;49.366;8.530;2023-04-06T02:07:55;-0.10;99.90
5802;DHT22;2927;49.366;8.530;2023-04-06T02:10:20;-0.10;1.00
5802;DHT22;2927;49.366;8.530;2023-04-06T02:12:46;0.00;1.00
5802;DHT22;2927;49.366;8.530;2023-04-06T02:15:11;0.00;1.00
5802;DHT22;2927;49.366;8.530;2023-04-06T02:17:39;-0.10;1.00
5802;DHT22;2927;49.366;8.530;2023-04-06T02:20:05;-0.10;99.90
5802;DHT22;2927;49.366;8.530;2023-04-06T02:22:32;-0.10;1.00
5802;DHT22;2927;49.366;8.530;2023-04-06T02:24:57;-0.10;99.90
5802;DHT22;2927;49.366;8.530;2023-04-06T02:27:23;-0.10;1.00
5802;DHT22;2927;49.366;8.530;2023-04-06T02:29:48;-0.10;1.00
5802;DHT22;2927;49.366;8.530;2023-04-06T02:32:14;-0.20;1.00
5802;DHT22;2927;49.366;8.530;2023-04-06T02:34:40;-0.20;1.00
5802;DHT22;2927;49.366;8.530;2023-04-06T02:37:05;-0.20;1.00
5802;DHT22;2927;49.366;8.530;2023-04-06T02:39:31;-0.20;99.90
5802;DHT22;2927;49.366;8.530;2023-04-06T02:41:56;-0.30;1.00
5802;DHT22;2927;49.366;8.530;2023-04-06T02:44:22;-0.30;1.00
5802;DHT22;2927;49.366;8.530;2023-04-06T02:46:48;-0.30;1.00
5802;DHT22;2927;49.366;8.530;2023-04-06T02:49:13;-0.30;99.90
5802;DHT22;2927;49.366;8.530;2023-04-06T02:51:39;-0.30;99.90
5802;DHT22;2927;49.366;8.530;2023-04-06T02:54:05;-0.30;99.90
5802;DHT22;2927;49.366;8.530;2023-04-06T02:56:30;-0.20;99.90
5802;DHT22;2927;49.366;8.530;2023-04-06T02:58:56;-0.20;1.00
5802;DHT22;2927;49.366;8.530;2023-04-06T03:01:21;-0.20;1.00
5802;DHT22;2927;49.366;8.530;2023-04-06T03:03:47;-0.20;1.00
5802;DHT22;2927;49.366;8.530;2023-04-06T03:06:12;-0.30;1.00
5802;DHT22;2927;49.366;8.530;2023-04-06T03:08:38;-0.30;1.00
5802;DHT22;2927;49.366;8.530;2023-04-06T03:11:04;-0.20;1.00
5802;DHT22;2927;49.366;8.530;2023-04-06T03:13:29;-0.20;99.90
5802;DHT22;2927;49.366;8.530;2023-04-06T03:15:55;-0.20;71.90
5802;DHT22;2927;49.366;8.530;2023-04-06T03:18:22;-0.20;1.00
5802;DHT22;2927;49.366;8.530;2023-04-06T03:20:48;-0.30;1.00
5802;DHT22;2927;49.366;8.530;2023-04-06T03:23:14;-0.20;99.90
5802;DHT22;2927;49.366;8.530;2023-04-06T03:25:39;-0.20;3.60
5802;DHT22;2927;49.366;8.530;2023-04-06T03:28:05;-0.20;1.00
5802;DHT22;2927;49.366;8.530;2023-04-06T03:30:30;-0.20;1.00
5802;DHT22;2927;49.366;8.530;2023-04-06T03:32:56;-0.20;1.00
5802;DHT22;2927;49.366;8.530;2023-04-06T03:35:21;-0.30;99.90
5802;DHT22;2927;49.366;8.530;2023-04-06T03:37:47;-0.30;1.00
5802;DHT22;2927;49.366;8.530;2023-04-06T03:40:12;-0.40;1.00
5802;DHT22;2927;49.366;8.530;2023-04-06T03:42:38;-0.50;1.00
5802;DHT22;2927;49.366;8.530;2023-04-06T03:45:03;-0.60;83.80
5802;DHT22;2927;49.366;8.530;2023-04-06T03:47:29;-0.60;1.00
5802;DHT22;2927;49.366;8.530;2023-04-06T03:49:54;-0.60;1.00
5802;DHT22;2927;49.366;8.530;2023-04-06T03:52:20;-0.60;1.00
5802;DHT22;2927;49.366;8.530;2023-04-06T03:54:48;-0.60;1.00
5802;DHT22;2927;49.366;8.530;2023-04-06T03:57:14;-0.60;1.00
5802;DHT22;2927;49.366;8.530;2023-04-06T03:59:39;-0.70;1.00
5802;DHT22;2927;49.366;8.530;2023-04-06T04:02:05;-0.60;1.00
5802;DHT22;2927;49.366;8.530;2023-04-06T04:04:30;-0.50;1.00
5802;DHT22;2927;49.366;8.530;2023-04-06T04:06:56;-0.60;1.00
5802;DHT22;2927;49.366;8.530;2023-04-06T04:09:21;-0.70;1.00
5802;DHT22;2927;49.366;8.530;2023-04-06T04:11:47;-0.70;1.00
5802;DHT22;2927;49.366;8.530;2023-04-06T04:14:12;-0.70;1.00
5802;DHT22;2927;49.366;8.530;2023-04-06T04:16:38;-0.70;99.90
5802;DHT22;2927;49.366;8.530;2023-04-06T04:19:04;-0.80;1.00
5802;DHT22;2927;49.366;8.530;2023-04-06T04:21:31;-0.80;1.00
5802;DHT22;2927;49.366;8.530;2023-04-06T04:23:56;-0.80;1.00
5802;DHT22;2927;49.366;8.530;2023-04-06T04:26:22;-0.90;1.00
5802;DHT22;2927;49.366;8.530;2023-04-06T04:28:47;-0.80;1.00
5802;DHT22;2927;49.366;8.530;2023-04-06T04:31:13;-0.80;1.00
5802;DHT22;2927;49.366;8.530;2023-04-06T04:33:38;-0.70;1.00
5802;DHT22;2927;49.366;8.530;2023-04-06T04:36:04;-0.60;1.00
5802;DHT22;2927;49.366;8.530;2023-04-06T04:38:30;-0.60;99.90
5802;DHT22;2927;49.366;8.530;2023-04-06T04:40:55;-0.70;99.90
5802;DHT22;2927;49.366;8.530;2023-04-06T04:43:21;-0.70;99.90
5802;DHT22;2927;49.366;8.530;2023-04-06T04:45:46;-0.70;99.90
5802;DHT22;2927;49.366;8.530;2023-04-06T04:48:12;-0.70;99.90
5802;DHT22;2927;49.366;8.530;2023-04-06T04:50:37;-0.60;99.90
5802;DHT22;2927;49.366;8.530;2023-04-06T04:53:03;-0.60;38.10
5802;DHT22;2927;49.366;8.530;2023-04-06T04:55:31;-0.60;97.00
5802;DHT22;2927;49.366;8.530;2023-04-06T04:57:56;-0.50;70.30
5802;DHT22;2927;49.366;8.530;2023-04-06T05:00:22;-0.50;1.00
5802;DHT22;2927;49.366;8.530;2023-04-06T05:02:47;-0.40;1.00
5802;DHT22;2927;49.366;8.530;2023-04-06T05:05:13;-0.30;1.00
5802;DHT22;2927;49.366;8.530;2023-04-06T05:07:39;-0.20;1.00
5802;DHT22;2927;49.366;8.530;2023-04-06T05:10:05;-0.20;99.90
5802;DHT22;2927;49.366;8.530;2023-04-06T05:12:30;-0.10;99.90
5802;DHT22;2927;49.366;8.530;2023-04-06T05:14:56;0.00;1.00
5802;DHT22;2927;49.366;8.530;2023-04-06T05:17:22;0.00;99.90
5802;DHT22;2927;49.366;8.530;2023-04-06T05:19:47;0.10;1.00
5802;DHT22;2927;49.366;8.530;2023-04-06T05:22:13;0.20;1.00
5802;DHT22;2927;49.366;8.530;2023-04-06T05:24:41;0.20;1.00
5802;DHT22;2927;49.366;8.530;2023-04-06T05:27:06;0.30;99.90
5802;DHT22;2927;49.366;8.530;2023-04-06T05:29:32;0.40;1.00
5802;DHT22;2927;49.366;8.530;2023-04-06T05:31:58;0.50;99.90
5802;DHT22;2927;49.366;8.530;2023-04-06T05:34:24;0.60;1.00
5802;DHT22;2927;49.366;8.530;2023-04-06T05:36:49;0.70;99.90
5802;DHT22;2927;49.366;8.530;2023-04-06T05:39:15;0.80;1.00
5802;DHT22;2927;49.366;8.530;2023-04-06T05:41:41;0.90;99.90
5802;DHT22;2927;49.366;8.530;2023-04-06T05:44:06;1.00;1.00
5802;DHT22;2927;49.366;8.530;2023-04-06T05:46:32;1.20;1.00
5802;DHT22;2927;49.366;8.530;2023-04-06T05:48:57;1.40;97.80
5802;DHT22;2927;49.366;8.530;2023-04-06T05:51:23;1.70;1.00
5802;DHT22;2927;49.366;8.530;2023-04-06T05:53:48;2.00;1.00
5802;DHT22;2927;49.366;8.530;2023-04-06T05:56:14;2.50;1.00
5802;DHT22;2927;49.366;8.530;2023-04-06T05:58:40;3.60;1.00
5802;DHT22;2927;49.366;8.530;2023-04-06T06:01:05;4.70;1.00
5802;DHT22;2927;49.366;8.530;2023-04-06T06:03:31;5.40;1.00
5802;DHT22;2927;49.366;8.530;2023-04-06T06:06:03;6.20;1.00
5802;DHT22;2927;49.366;8.530;2023-04-06T06:08:29;6.60;99.90
5802;DHT22;2927;49.366;8.530;2023-04-06T06:10:56;7.10;99.90
5802;DHT22;2927;49.366;8.530;2023-04-06T06:13:22;7.30;99.90
5802;DHT22;2927;49.366;8.530;2023-04-06T06:15:48;7.90;99.90
5802;DHT22;2927;49.366;8.530;2023-04-06T06:18:13;7.90;99.90
5802;DHT22;2927;49.366;8.530;2023-04-06T06:20:39;8.20;99.90
5802;DHT22;2927;49.366;8.530;2023-04-06T06:23:04;8.30;99.90
5802;DHT22;2927;49.366;8.530;2023-04-06T06:25:30;8.60;99.90
5802;DHT22;2927;49.366;8.530;2023-04-06T06:27:56;8.70;99.90
5802;DHT22;2927;49.366;8.530;2023-04-06T06:30:22;8.70;99.90
5802;DHT22;2927;49.366;8.530;2023-04-06T06:32:47;9.20;99.90
5802;DHT22;2927;49.366;8.530;2023-04-06T06:35:13;9.30;99.90
5802;DHT22;2927;49.366;8.530;2023-04-06T06:37:39;9.60;97.50
5802;DHT22;2927;49.366;8.530;2023-04-06T06:40:05;10.00;66.70
5802;DHT22;2927;49.366;8.530;2023-04-06T06:42:31;10.20;42.70
5802;DHT22;2927;49.366;8.530;2023-04-06T06:44:56;10.30;39.10
5802;DHT22;2927;49.366;8.530;2023-04-06T06:47:22;10.30;29.40
5802;DHT22;2927;49.366;8.530;2023-04-06T06:49:47;10.30;22.40
5802;DHT22;2927;49.366;8.530;2023-04-06T06:54:48;10.50;18.40
5802;DHT22;2927;49.366;8.530;2023-04-06T06:57:14;10.70;11.20
5802;DHT22;2927;49.366;8.530;2023-04-06T06:59:39;10.90;3.00
5802;DHT22;2927;49.366;8.530;2023-04-06T07:02:05;11.00;1.00
5802;DHT22;2927;49.366;8.530;2023-04-06T07:04:30;11.00;1.00
5802;DHT22;2927;49.366;8.530;2023-04-06T07:06:56;11.60;1.00
5802;DHT22;2927;49.366;8.530;2023-04-06T07:09:21;11.90;1.00
5802;DHT22;2927;49.366;8.530;2023-04-06T07:11:47;12.10;1.00
5802;DHT22;2927;49.366;8.530;2023-04-06T07:14:15;12.40;1.00
5802;DHT22;2927;49.366;8.530;2023-04-06T07:16:41;12.50;1.00
5802;DHT22;2927;49.366;8.530;2023-04-06T07:19:06;12.80;1.00
5802;DHT22;2927;49.366;8.530;2023-04-06T07:21:32;12.10;1.00
5802;DHT22;2927;49.366;8.530;2023-04-06T07:23:57;12.20;1.00
5802;DHT22;2927;49.366;8.530;2023-04-06T07:26:23;12.20;1.00
5802;DHT22;2927;49.366;8.530;2023-04-06T07:31:24;12.50;1.00
5802;DHT22;2927;49.366;8.530;2023-04-06T07:33:49;12.60;1.00
5802;DHT22;2927;49.366;8.530;2023-04-06T07:44:01;12.50;1.00
5802;DHT22;2927;49.366;8.530;2023-04-06T07:46:26;12.90;1.00
5802;DHT22;2927;49.366;8.530;2023-04-06T07:48:52;13.30;1.00
5802;DHT22;2927;49.366;8.530;2023-04-06T07:51:18;13.80;1.00
5802;DHT22;2927;49.366;8.530;2023-04-06T07:53:46;13.50;1.00
5802;DHT22;2927;49.366;8.530;2023-04-06T07:56:12;14.60;1.00
5802;DHT22;2927;49.366;8.530;2023-04-06T07:58:38;14.20;1.00
5802;DHT22;2927;49.366;8.530;2023-04-06T08:01:04;14.30;1.00
5802;DHT22;2927;49.366;8.530;2023-04-06T08:03:29;14.10;1.00
5802;DHT22;2927;49.366;8.530;2023-04-06T08:05:55;14.50;1.00
5802;DHT22;2927;49.366;8.530;2023-04-06T08:08:21;15.00;1.00
5802;DHT22;2927;49.366;8.530;2023-04-06T08:10:49;15.40;1.00
5802;DHT22;2927;49.366;8.530;2023-04-06T08:13:15;15.70;1.00
5802;DHT22;2927;49.366;8.530;2023-04-06T08:15:41;16.50;1.00
5802;DHT22;2927;49.366;8.530;2023-04-06T08:18:07;16.10;1.00
5802;DHT22;2927;49.366;8.530;2023-04-06T08:20:33;16.50;1.00
5802;DHT22;2927;49.366;8.530;2023-04-06T08:28:03;16.70;1.00
5802;DHT22;2927;49.366;8.530;2023-04-06T08:30:30;16.20;1.00
5802;DHT22;2927;49.366;8.530;2023-04-06T08:32:56;16.50;1.00
5802;DHT22;2927;49.366;8.530;2023-04-06T08:35:21;17.30;1.00
5802;DHT22;2927;49.366;8.530;2023-04-06T08:37:47;17.00;1.00
5802;DHT22;2927;49.366;8.530;2023-04-06T08:40:13;17.40;1.00
5802;DHT22;2927;49.366;8.530;2023-04-06T08:42:40;17.80;1.00
5802;DHT22;2927;49.366;8.530;2023-04-06T08:45:09;17.90;1.00
5802;DHT22;2927;49.366;8.530;2023-04-06T08:50:10;17.90;1.00
5802;DHT22;2927;49.366;8.530;2023-04-06T08:52:40;18.30;1.00
5802;DHT22;2927;49.366;8.530;2023-04-06T08:55:07;18.00;1.00
5802;DHT22;2927;49.366;8.530;2023-04-06T08:57:35;17.70;1.00
5802;DHT22;2927;49.366;8.530;2023-04-06T09:00:01;18.80;1.00
5802;DHT22;2927;49.366;8.530;2023-04-06T09:02:27;18.50;1.00
5802;DHT22;2927;49.366;8.530;2023-04-06T09:04:53;18.50;1.00
5802;DHT22;2927;49.366;8.530;2023-04-06T09:07:20;18.90;1.00
5802;DHT22;2927;49.366;8.530;2023-04-06T09:09:46;19.60;1.00
5802;DHT22;2927;49.366;8.530;2023-04-06T09:12:30;19.10;1.00
5802;DHT22;2927;49.366;8.530;2023-04-06T09:14:57;19.60;1.00
5802;DHT22;2927;49.366;8.530;2023-04-06T09:17:25;19.90;1.00
5802;DHT22;2927;49.366;8.530;2023-04-06T09:19:51;19.00;1.00
5802;DHT22;2927;49.366;8.530;2023-04-06T09:22:17;19.00;1.00
5802;DHT22;2927;49.366;8.530;2023-04-06T09:24:53;19.00;1.00
5802;DHT22;2927;49.366;8.530;2023-04-06T09:27:31;19.00;1.00
5802;DHT22;2927;49.366;8.530;2023-04-06T09:30:08;19.10;1.00
5802;DHT22;2927;49.366;8.530;2023-04-06T09:32:51;19.20;1.00
5802;DHT22;2927;49.366;8.530;2023-04-06T09:35:18;19.80;1.00
5802;DHT22;2927;49.366;8.530;2023-04-06T09:37:46;19.30;1.00
5802;DHT22;2927;49.366;8.530;2023-04-06T09:40:13;19.20;1.00
5802;DHT22;2927;49.366;8.530;2023-04-06T09:42:45;19.40;1.00
5802;DHT22;2927;49.366;8.530;2023-04-06T09:45:10;19.80;1.00
5802;DHT22;2927;49.366;8.530;2023-04-06T09:47:37;19.40;1.00
5802;DHT22;2927;49.366;8.530;2023-04-06T09:50:03;20.00;1.00
5802;DHT22;2927;49.366;8.530;2023-04-06T09:52:36;19.90;1.00
5802;DHT22;2927;49.366;8.530;2023-04-06T09:55:04;19.70;1.00
5802;DHT22;2927;49.366;8.530;2023-04-06T09:57:55;20.20;1.00
5802;DHT22;2927;49.366;8.530;2023-04-06T10:00:23;20.30;1.00
5802;DHT22;2927;49.366;8.530;2023-04-06T10:03:14;19.50;1.00
5802;DHT22;2927;49.366;8.530;2023-04-06T10:05:46;20.00;1.00
5802;DHT22;2927;49.366;8.530;2023-04-06T10:08:16;19.30;1.00
5802;DHT22;2927;49.366;8.530;2023-04-06T10:10:42;17.90;1.00
5802;DHT22;2927;49.366;8.530;2023-04-06T10:13:10;16.80;1.00
5802;DHT22;2927;49.366;8.530;2023-04-06T10:15:38;16.30;1.00
5802;DHT22;2927;49.366;8.530;2023-04-06T10:18:03;16.50;1.00
5802;DHT22;2927;49.366;8.530;2023-04-06T10:23:25;15.80;1.00
5802;DHT22;2927;49.366;8.530;2023-04-06T10:25:53;15.20;1.00
5802;DHT22;2927;49.366;8.530;2023-04-06T10:28:19;15.40;1.00
5802;DHT22;2927;49.366;8.530;2023-04-06T10:30:45;15.50;1.00
5802;DHT22;2927;49.366;8.530;2023-04-06T10:33:18;15.20;1.00
5802;DHT22;2927;49.366;8.530;2023-04-06T10:35:45;15.00;1.00
5802;DHT22;2927;49.366;8.530;2023-04-06T10:38:10;15.50;1.00
5802;DHT22;2927;49.366;8.530;2023-04-06T10:40:40;15.80;1.00
5802;DHT22;2927;49.366;8.530;2023-04-06T10:43:13;15.20;1.00
5802;DHT22;2927;49.366;8.530;2023-04-06T10:45:40;15.20;1.00
5802;DHT22;2927;49.366;8.530;2023-04-06T10:48:18;15.00;1.00
5802;DHT22;2927;49.366;8.530;2023-04-06T10:50:46;14.90;1.00
5802;DHT22;2927;49.366;8.530;2023-04-06T10:53:19;14.80;1.00
5802;DHT22;2927;49.366;8.530;2023-04-06T10:55:45;14.80;1.00
5802;DHT22;2927;49.366;8.530;2023-04-06T10:58:12;15.00;1.00
5802;DHT22;2927;49.366;8.530;2023-04-06T11:00:47;15.10;1.00
5802;DHT22;2927;49.366;8.530;2023-04-06T11:03:13;15.20;1.00
5802;DHT22;2927;49.366;8.530;2023-04-06T11:05:38;15.00;1.00
5802;DHT22;2927;49.366;8.530;2023-04-06T11:08:08;15.10;1.00
5802;DHT22;2927;49.366;8.530;2023-04-06T11:10:33;15.40;1.00
5802;DHT22;2927;49.366;8.530;2023-04-06T11:12:59;15.50;1.00
5802;DHT22;2927;49.366;8.530;2023-04-06T11:15:24;15.50;1.00
5802;DHT22;2927;49.366;8.530;2023-04-06T11:17:50;15.30;1.00
5802;DHT22;2927;49.366;8.530;2023-04-06T11:20:16;15.20;1.00
5802;DHT22;2927;49.366;8.530;2023-04-06T11:22:52;15.60;1.00
5802;DHT22;2927;49.366;8.530;2023-04-06T11:25:18;15.30;1.00
5802;DHT22;2927;49.366;8.530;2023-04-06T11:27:45;15.30;1.00
5802;DHT22;2927;49.366;8.530;2023-04-06T11:30:11;15.30;1.00
5802;DHT22;2927;49.366;8.530;2023-04-06T11:32:45;15.10;1.00
5802;DHT22;2927;49.366;8.530;2023-04-06T11:43:16;15.50;1.00
5802;DHT22;2927;49.366;8.530;2023-04-06T11:45:43;15.70;1.00
5802;DHT22;2927;49.366;8.530;2023-04-06T11:53:12;15.10;1.00
5802;DHT22;2927;49.366;8.530;2023-04-06T11:55:38;14.80;1.00
5802;DHT22;2927;49.366;8.530;2023-04-06T11:58:04;15.10;1.00
5802;DHT22;2927;49.366;8.530;2023-04-06T12:00:30;15.20;1.00
5802;DHT22;2927;49.366;8.530;2023-04-06T12:03:00;15.20;1.00
5802;DHT22;2927;49.366;8.530;2023-04-06T12:05:26;15.40;1.00
5802;DHT22;2927;49.366;8.530;2023-04-06T12:10:27;15.30;1.00
5802;DHT22;2927;49.366;8.530;2023-04-06T12:12:52;15.40;1.00
5802;DHT22;2927;49.366;8.530;2023-04-06T12:15:18;15.30;1.00
5802;DHT22;2927;49.366;8.530;2023-04-06T12:17:43;15.00;1.00
5802;DHT22;2927;49.366;8.530;2023-04-06T12:20:09;14.90;1.00
5802;DHT22;2927;49.366;8.530;2023-04-06T12:22:35;15.00;1.00
5802;DHT22;2927;49.366;8.530;2023-04-06T12:25:01;15.00;1.00
5802;DHT22;2927;49.366;8.530;2023-04-06T12:27:27;15.30;1.00
5802;DHT22;2927;49.366;8.530;2023-04-06T12:29:53;15.60;1.00
5802;DHT22;2927;49.366;8.530;2023-04-06T12:34:54;15.60;1.00
5802;DHT22;2927;49.366;8.530;2023-04-06T12:37:20;15.50;1.00
5802;DHT22;2927;49.366;8.530;2023-04-06T12:39:46;15.30;1.00
5802;DHT22;2927;49.366;8.530;2023-04-06T12:47:22;14.90;1.00
5802;DHT22;2927;49.366;8.530;2023-04-06T12:49:48;15.10;1.00
5802;DHT22;2927;49.366;8.530;2023-04-06T12:52:13;15.10;1.00
5802;DHT22;2927;49.366;8.530;2023-04-06T12:54:39;15.20;1.00
5802;DHT22;2927;49.366;8.530;2023-04-06T12:57:04;15.30;1.00
5802;DHT22;2927;49.366;8.530;2023-04-06T12:59:30;15.40;1.00
5802;DHT22;2927;49.366;8.530;2023-04-06T13:02:00;15.50;1.00
5802;DHT22;2927;49.366;8.530;2023-04-06T13:09:36;15.30;1.00
5802;DHT22;2927;49.366;8.530;2023-04-06T13:12:02;15.30;1.00
5802;DHT22;2927;49.366;8.530;2023-04-06T13:14:28;15.20;1.00
5802;DHT22;2927;49.366;8.530;2023-04-06T13:16:54;15.10;1.00
5802;DHT22;2927;49.366;8.530;2023-04-06T13:19:20;15.30;1.00
5802;DHT22;2927;49.366;8.530;2023-04-06T13:24:21;15.40;1.00
5802;DHT22;2927;49.366;8.530;2023-04-06T13:26:47;15.40;1.00
5802;DHT22;2927;49.366;8.530;2023-04-06T13:29:12;15.20;1.00
5802;DHT22;2927;49.366;8.530;2023-04-06T13:41:54;15.50;1.00
5802;DHT22;2927;49.366;8.530;2023-04-06T13:44:21;15.70;1.00
5802;DHT22;2927;49.366;8.530;2023-04-06T13:46:47;15.20;1.00
5802;DHT22;2927;49.366;8.530;2023-04-06T13:54:23;15.20;1.00
5802;DHT22;2927;49.366;8.530;2023-04-06T13:56:51;15.40;1.00
5802;DHT22;2927;49.366;8.530;2023-04-06T13:59:17;15.50;1.00
5802;DHT22;2927;49.366;8.530;2023-04-06T14:01:42;15.30;1.00
5802;DHT22;2927;49.366;8.530;2023-04-06T14:04:08;15.10;1.00
5802;DHT22;2927;49.366;8.530;2023-04-06T14:06:33;15.20;1.00
5802;DHT22;2927;49.366;8.530;2023-04-06T14:08:59;15.20;1.00
5802;DHT22;2927;49.366;8.530;2023-04-06T14:11:25;15.40;1.00
5802;DHT22;2927;49.366;8.530;2023-04-06T14:13:51;15.50;1.00
5802;DHT22;2927;49.366;8.530;2023-04-06T14:16:17;15.30;1.00
5802;DHT22;2927;49.366;8.530;2023-04-06T14:18:44;15.30;1.00
5802;DHT22;2927;49.366;8.530;2023-04-06T14:21:10;15.10;1.00
5802;DHT22;2927;49.366;8.530;2023-04-06T14:23:36;15.10;1.00
5802;DHT22;2927;49.366;8.530;2023-04-06T14:26:06;15.30;1.00
5802;DHT22;2927;49.366;8.530;2023-04-06T14:28:32;15.20;1.00
5802;DHT22;2927;49.366;8.530;2023-04-06T14:30:59;15.00;1.00
5802;DHT22;2927;49.366;8.530;2023-04-06T14:33:26;14.90;1.00
5802;DHT22;2927;49.366;8.530;2023-04-06T14:38:27;15.00;1.00
5802;DHT22;2927;49.366;8.530;2023-04-06T14:40:52;15.00;1.00
5802;DHT22;2927;49.366;8.530;2023-04-06T14:43:18;15.00;1.00
5802;DHT22;2927;49.366;8.530;2023-04-06T14:45:43;15.00;1.00
5802;DHT22;2927;49.366;8.530;2023-04-06T14:48:09;15.00;1.00
5802;DHT22;2927;49.366;8.530;2023-04-06T14:58:24;14.90;1.00
5802;DHT22;2927;49.366;8.530;2023-04-06T15:00:58;15.00;1.00
5802;DHT22;2927;49.366;8.530;2023-04-06T15:05:55;14.80;1.00
5802;DHT22;2927;49.366;8.530;2023-04-06T15:16:06;15.10;1.00
5802;DHT22;2927;49.366;8.530;2023-04-06T15:36:39;14.40;1.00
5802;DHT22;2927;49.366;8.530;2023-04-06T15:44:16;14.40;1.00
5802;DHT22;2927;49.366;8.530;2023-04-06T15:46:42;14.40;1.00
5802;DHT22;2927;49.366;8.530;2023-04-06T15:49:08;14.40;1.00
5802;DHT22;2927;49.366;8.530;2023-04-06T16:53:21;13.60;1.00
5802;DHT22;2927;49.366;8.530;2023-04-06T17:03:33;13.20;1.00
5802;DHT22;2927;49.366;8.530;2023-04-06T17:05:59;13.10;1.00
5802;DHT22;2927;49.366;8.530;2023-04-06T17:44:33;11.80;1.00
5802;DHT22;2927;49.366;8.530;2023-04-06T18:02:31;11.40;86.00
5802;DHT22;2927;49.366;8.530;2023-04-06T20:14:39;8.40;1.00
5802;DHT22;2927;49.366;8.530;2023-04-06T20:17:05;8.40;1.00
5802;DHT22;2927;49.366;8.530;2023-04-06T20:19:34;8.30;1.00
5802;DHT22;2927;49.366;8.530;2023-04-06T20:21:59;8.30;1.00
5802;DHT22;2927;49.366;8.530;2023-04-06T20:24:28;8.30;1.00
5802;DHT22;2927;49.366;8.530;2023-04-06T20:26:54;8.30;1.00
5802;DHT22;2927;49.366;8.530;2023-04-06T20:29:21;8.30;1.00
5802;DHT22;2927;49.366;8.530;2023-04-06T20:31:46;8.20;1.00
5802;DHT22;2927;49.366;8.530;2023-04-06T20:34:12;8.20;1.00
5802;DHT22;2927;49.366;8.530;2023-04-06T20:36:38;8.20;1.00
5802;DHT22;2927;49.366;8.530;2023-04-06T20:41:39;8.20;1.00
5802;DHT22;2927;49.366;8.530;2023-04-06T20:44:05;8.20;1.00
5802;DHT22;2927;49.366;8.530;2023-04-06T20:46:31;8.20;8.70
5802;DHT22;2927;49.366;8.530;2023-04-06T20:48:56;8.20;77.90
5802;DHT22;2927;49.366;8.530;2023-04-06T20:51:22;8.20;99.90
5802;DHT22;2927;49.366;8.530;2023-04-06T20:53:48;8.10;99.90
5802;DHT22;2927;49.366;8.530;2023-04-06T20:56:14;8.10;99.90
5802;DHT22;2927;49.366;8.530;2023-04-06T20:58:40;8.00;99.90
5802;DHT22;2927;49.366;8.530;2023-04-06T21:01:11;8.00;99.90
5802;DHT22;2927;49.366;8.530;2023-04-06T21:03:37;7.90;99.90
5802;DHT22;2927;49.366;8.530;2023-04-06T21:06:03;7.90;99.90
5802;DHT22;2927;49.366;8.530;2023-04-06T21:08:28;7.80;99.90
5802;DHT22;2927;49.366;8.530;2023-04-06T21:10:54;7.80;99.90
5802;DHT22;2927;49.366;8.530;2023-04-06T21:13:19;7.70;99.90
5802;DHT22;2927;49.366;8.530;2023-04-06T21:15:45;7.70;99.90
5802;DHT22;2927;49.366;8.530;2023-04-06T21:18:11;7.70;99.90
5802;DHT22;2927;49.366;8.530;2023-04-06T21:20:36;7.70;99.90
5802;DHT22;2927;49.366;8.530;2023-04-06T21:23:03;7.70;99.90
5802;DHT22;2927;49.366;8.530;2023-04-06T21:25:29;7.70;99.90
5802;DHT22;2927;49.366;8.530;2023-04-06T21:27:54;7.60;99.90
5802;DHT22;2927;49.366;8.530;2023-04-06T21:30:20;7.60;99.90
5802;DHT22;2927;49.366;8.530;2023-04-06T21:32:45;7.50;99.90
5802;DHT22;2927;49.366;8.530;2023-04-06T21:35:11;7.50;99.90
5802;DHT22;2927;49.366;8.530;2023-04-06T21:37:37;7.50;99.90
5802;DHT22;2927;49.366;8.530;2023-04-06T21:40:02;7.40;99.90
5802;DHT22;2927;49.366;8.530;2023-04-06T21:42:28;7.40;99.90
5802;DHT22;2927;49.366;8.530;2023-04-06T21:44:54;7.40;99.90
5802;DHT22;2927;49.366;8.530;2023-04-06T21:47:19;7.40;99.90
5802;DHT22;2927;49.366;8.530;2023-04-06T21:49:45;7.40;99.90
5802;DHT22;2927;49.366;8.530;2023-04-06T21:52:10;7.40;99.90
5802;DHT22;2927;49.366;8.530;2023-04-06T21:54:36;7.30;99.90
5802;DHT22;2927;49.366;8.530;2023-04-06T21:57:02;7.30;99.90
5802;DHT22;2927;49.366;8.530;2023-04-06T21:59:28;7.30;99.90
5802;DHT22;2927;49.366;8.530;2023-04-06T22:01:53;7.20;99.90
5802;DHT22;2927;49.366;8.530;2023-04-06T22:04:19;7.20;99.90
5802;DHT22;2927;49.366;8.530;2023-04-06T22:06:47;7.20;99.90
5802;DHT22;2927;49.366;8.530;2023-04-06T22:09:13;7.20;99.90
5802;DHT22;2927;49.366;8.530;2023-04-06T22:11:38;7.20;99.90
5802;DHT22;2927;49.366;8.530;2023-04-06T22:14:04;7.20;99.90
5802;DHT22;2927;49.366;8.530;2023-04-06T22:16:30;7.10;99.90
5802;DHT22;2927;49.366;8.530;2023-04-06T22:18:56;7.20;99.90
5802;DHT22;2927;49.366;8.530;2023-04-06T22:21:23;7.10;99.90